Hale, United Kingdom
Current Conditions -  °F | °C
As of 7:50 PM on Sunday 25 Jan 2015 (Local Time) from EGLF Reporting Station
Broken Clouds Broken Clouds  
Wind Chill: 39°   Ceiling: 1600
Heat Index: 45°   Visibility: 6mi
Dew Point: 39°   Wind: 10mph
Humidity: 81%   Direction: 240°WSW
Pressure: 30.33"   Gusts: NA
Location:  51.22°N, 0.78°W
Report Text: EGLF 251950Z 24009KT 9999 BKN016 07/04 Q1027
Loading
Personal Weather Stations






























Interactive Weather Map New forecast layout! Learn more

10-Day Weather Forecast

Advertisements
Track Severe Weather on mobile